sensor_id;sensor_type;location;lat;lon;timestamp;pressure;altitude;pressure_sealevel;temperature;humidity
72636;BME280;60679;48.888;15.544;2023-07-02T00:01:09;95342.91;;;15.25;58.16
72636;BME280;60679;48.888;15.544;2023-07-02T00:03:35;95339.66;;;15.23;58.16
72636;BME280;60679;48.888;15.544;2023-07-02T00:06:02;95342.38;;;15.23;58.25
72636;BME280;60679;48.888;15.544;2023-07-02T00:08:27;95344.56;;;15.21;58.37
72636;BME280;60679;48.888;15.544;2023-07-02T00:10:53;95334.50;;;15.21;58.46
72636;BME280;60679;48.888;15.544;2023-07-02T00:13:18;95335.31;;;15.27;58.50
72636;BME280;60679;48.888;15.544;2023-07-02T00:15:44;95335.53;;;15.30;58.56
72636;BME280;60679;48.888;15.544;2023-07-02T00:18:09;95338.28;;;15.35;58.54
72636;BME280;60679;48.888;15.544;2023-07-02T00:20:34;95338.25;;;15.40;58.53
72636;BME280;60679;48.888;15.544;2023-07-02T00:23:03;95339.06;;;15.46;58.47
72636;BME280;60679;48.888;15.544;2023-07-02T00:25:29;95339.31;;;15.44;58.54
72636;BME280;60679;48.888;15.544;2023-07-02T00:27:54;95337.41;;;15.50;58.44
72636;BME280;60679;48.888;15.544;2023-07-02T00:30:20;95333.34;;;15.57;58.49
72636;BME280;60679;48.888;15.544;2023-07-02T00:32:45;95328.13;;;15.61;58.24
72636;BME280;60679;48.888;15.544;2023-07-02T00:35:10;95336.84;;;15.63;58.42
72636;BME280;60679;48.888;15.544;2023-07-02T00:37:36;95338.75;;;15.63;58.34
72636;BME280;60679;48.888;15.544;2023-07-02T00:40:02;95336.84;;;15.63;58.27
72636;BME280;60679;48.888;15.544;2023-07-02T00:42:28;95335.75;;;15.59;58.49
72636;BME280;60679;48.888;15.544;2023-07-02T00:44:56;95331.41;;;15.58;58.45
72636;BME280;60679;48.888;15.544;2023-07-02T00:47:28;95337.66;;;15.58;58.79
72636;BME280;60679;48.888;15.544;2023-07-02T00:49:54;95338.75;;;15.63;58.64
72636;BME280;60679;48.888;15.544;2023-07-02T00:52:20;95334.38;;;15.72;58.61
72636;BME280;60679;48.888;15.544;2023-07-02T00:54:46;95334.84;;;15.84;58.66
72636;BME280;60679;48.888;15.544;2023-07-02T00:57:11;95330.47;;;15.88;58.43
72636;BME280;60679;48.888;15.544;2023-07-02T00:59:37;95335.06;;;15.92;58.61
72636;BME280;60679;48.888;15.544;2023-07-02T01:02:04;95335.84;;;16.03;58.41
72636;BME280;60679;48.888;15.544;2023-07-02T01:04:30;95327.09;;;16.11;58.31
72636;BME280;60679;48.888;15.544;2023-07-02T01:06:57;95328.13;;;16.15;58.36
72636;BME280;60679;48.888;15.544;2023-07-02T01:09:23;95317.81;;;16.17;58.43
72636;BME280;60679;48.888;15.544;2023-07-02T01:11:53;95323.72;;;16.24;58.24
72636;BME280;60679;48.888;15.544;2023-07-02T01:14:26;95317.16;;;16.30;58.35
72636;BME280;60679;48.888;15.544;2023-07-02T01:16:55;95312.50;;;16.36;58.39
72636;BME280;60679;48.888;15.544;2023-07-02T01:19:43;95314.66;;;16.39;58.31
72636;BME280;60679;48.888;15.544;2023-07-02T01:22:09;95311.63;;;16.40;58.27
72636;BME280;60679;48.888;15.544;2023-07-02T01:24:39;95312.75;;;16.39;58.34
72636;BME280;60679;48.888;15.544;2023-07-02T01:27:05;95316.56;;;16.38;58.20
72636;BME280;60679;48.888;15.544;2023-07-02T01:29:31;95320.91;;;16.39;58.43
72636;BME280;60679;48.888;15.544;2023-07-02T01:31:57;95324.47;;;16.40;58.05
72636;BME280;60679;48.888;15.544;2023-07-02T01:34:23;95316.56;;;16.38;58.53
72636;BME280;60679;48.888;15.544;2023-07-02T01:36:49;95321.75;;;16.40;58.42
72636;BME280;60679;48.888;15.544;2023-07-02T01:39:14;95322.78;;;16.44;58.66
72636;BME280;60679;48.888;15.544;2023-07-02T01:41:52;95327.38;;;16.48;58.61
72636;BME280;60679;48.888;15.544;2023-07-02T01:44:18;95324.66;;;16.53;58.54
72636;BME280;60679;48.888;15.544;2023-07-02T01:46:44;95328.69;;;16.61;58.40
72636;BME280;60679;48.888;15.544;2023-07-02T01:49:14;95325.34;;;16.69;58.41
72636;BME280;60679;48.888;15.544;2023-07-02T01:51:40;95317.69;;;16.71;58.34
72636;BME280;60679;48.888;15.544;2023-07-02T01:54:05;95320.66;;;16.74;58.52
72636;BME280;60679;48.888;15.544;2023-07-02T01:56:31;95325.03;;;16.76;58.44
72636;BME280;60679;48.888;15.544;2023-07-02T01:58:56;95320.66;;;16.74;58.24
72636;BME280;60679;48.888;15.544;2023-07-02T02:01:22;95317.97;;;16.69;58.52
72636;BME280;60679;48.888;15.544;2023-07-02T02:03:47;95322.38;;;16.65;58.41
72636;BME280;60679;48.888;15.544;2023-07-02T02:06:13;95322.41;;;16.60;58.59
72636;BME280;60679;48.888;15.544;2023-07-02T02:08:38;95317.25;;;16.59;58.66
72636;BME280;60679;48.888;15.544;2023-07-02T02:11:03;95323.28;;;16.56;58.72
72636;BME280;60679;48.888;15.544;2023-07-02T02:13:29;95317.81;;;16.56;58.74
72636;BME280;60679;48.888;15.544;2023-07-02T02:15:54;95318.88;;;16.60;58.85
72636;BME280;60679;48.888;15.544;2023-07-02T02:18:20;95316.41;;;16.63;58.72
72636;BME280;60679;48.888;15.544;2023-07-02T02:20:46;95323.75;;;16.68;58.83
72636;BME280;60679;48.888;15.544;2023-07-02T02:23:11;95326.16;;;16.69;58.64
72636;BME280;60679;48.888;15.544;2023-07-02T02:25:36;95321.00;;;16.68;58.58
72636;BME280;60679;48.888;15.544;2023-07-02T02:28:02;95321.28;;;16.66;58.62
72636;BME280;60679;48.888;15.544;2023-07-02T02:30:31;95324.31;;;16.65;58.74
72636;BME280;60679;48.888;15.544;2023-07-02T02:32:56;95319.63;;;16.65;58.78
72636;BME280;60679;48.888;15.544;2023-07-02T02:35:22;95320.19;;;16.67;58.80
72636;BME280;60679;48.888;15.544;2023-07-02T02:37:47;95322.09;;;16.67;58.90
72636;BME280;60679;48.888;15.544;2023-07-02T02:40:13;95324.31;;;16.65;58.65
72636;BME280;60679;48.888;15.544;2023-07-02T02:42:39;95324.31;;;16.65;58.94
72636;BME280;60679;48.888;15.544;2023-07-02T02:45:05;95324.88;;;16.62;58.90
72636;BME280;60679;48.888;15.544;2023-07-02T02:47:30;95321.31;;;16.61;58.63
72636;BME280;60679;48.888;15.544;2023-07-02T02:49:56;95327.03;;;16.60;58.89
72636;BME280;60679;48.888;15.544;2023-07-02T02:52:21;95330.59;;;16.60;58.86
72636;BME280;60679;48.888;15.544;2023-07-02T02:54:47;95334.97;;;16.61;58.88
72636;BME280;60679;48.888;15.544;2023-07-02T02:57:12;95331.13;;;16.62;58.84
72636;BME280;60679;48.888;15.544;2023-07-02T02:59:38;95333.56;;;16.64;58.99
72636;BME280;60679;48.888;15.544;2023-07-02T03:02:04;95330.28;;;16.67;58.92
72636;BME280;60679;48.888;15.544;2023-07-02T03:04:29;95332.47;;;16.65;58.86
72636;BME280;60679;48.888;15.544;2023-07-02T03:06:55;95338.19;;;16.63;59.02
72636;BME280;60679;48.888;15.544;2023-07-02T03:09:21;95334.66;;;16.63;58.97
72636;BME280;60679;48.888;15.544;2023-07-02T03:11:46;95342.00;;;16.67;59.17
72636;BME280;60679;48.888;15.544;2023-07-02T03:14:13;95341.13;;;16.72;58.93
72636;BME280;60679;48.888;15.544;2023-07-02T03:16:39;95349.56;;;16.76;58.86
72636;BME280;60679;48.888;15.544;2023-07-02T03:19:04;95348.44;;;16.82;58.83
72636;BME280;60679;48.888;15.544;2023-07-02T03:21:29;95351.38;;;16.85;58.69
72636;BME280;60679;48.888;15.544;2023-07-02T03:23:55;95347.88;;;16.85;58.78
72636;BME280;60679;48.888;15.544;2023-07-02T03:26:21;95350.59;;;16.85;58.70
72636;BME280;60679;48.888;15.544;2023-07-02T03:28:48;95354.69;;;16.82;58.85
72636;BME280;60679;48.888;15.544;2023-07-02T03:31:13;95355.50;;;16.83;59.02
72636;BME280;60679;48.888;15.544;2023-07-02T03:33:39;95357.69;;;16.81;58.97
72636;BME280;60679;48.888;15.544;2023-07-02T03:36:04;95362.84;;;16.82;59.10
72636;BME280;60679;48.888;15.544;2023-07-02T03:38:29;95362.06;;;16.82;59.22
72636;BME280;60679;48.888;15.544;2023-07-02T03:40:55;95362.84;;;16.82;59.11
72636;BME280;60679;48.888;15.544;2023-07-02T03:43:20;95364.22;;;16.85;59.04
72636;BME280;60679;48.888;15.544;2023-07-02T03:45:46;95361.72;;;16.88;59.24
72636;BME280;60679;48.888;15.544;2023-07-02T03:48:11;95362.28;;;16.90;59.12
72636;BME280;60679;48.888;15.544;2023-07-02T03:50:36;95362.47;;;16.99;58.98
72636;BME280;60679;48.888;15.544;2023-07-02T03:53:02;95366.75;;;17.05;58.93
72636;BME280;60679;48.888;15.544;2023-07-02T03:55:27;95370.84;;;17.07;59.17
72636;BME280;60679;48.888;15.544;2023-07-02T03:57:53;95377.09;;;17.08;59.05
72636;BME280;60679;48.888;15.544;2023-07-02T04:00:18;95375.72;;;17.10;59.01
72636;BME280;60679;48.888;15.544;2023-07-02T04:02:43;95373.81;;;17.11;59.12
72636;BME280;60679;48.888;15.544;2023-07-02T04:05:09;95374.34;;;17.13;59.23
72636;BME280;60679;48.888;15.544;2023-07-02T04:07:34;95384.97;;;17.14;59.23
72636;BME280;60679;48.888;15.544;2023-07-02T04:10:00;95391.31;;;17.05;59.23
72636;BME280;60679;48.888;15.544;2023-07-02T04:12:26;95401.13;;;16.72;59.77
72636;BME280;60679;48.888;15.544;2023-07-02T04:14:52;95401.28;;;16.42;60.21
72636;BME280;60679;48.888;15.544;2023-07-02T04:17:17;95406.47;;;16.38;60.40
72636;BME280;60679;48.888;15.544;2023-07-02T04:19:43;95402.59;;;16.49;60.46
72636;BME280;60679;48.888;15.544;2023-07-02T04:22:08;95404.72;;;16.62;60.26
72636;BME280;60679;48.888;15.544;2023-07-02T04:24:33;95407.09;;;16.74;59.94
72636;BME280;60679;48.888;15.544;2023-07-02T04:26:59;95414.66;;;16.82;60.02
72636;BME280;60679;48.888;15.544;2023-07-02T04:29:25;95416.78;;;16.95;59.93
72636;BME280;60679;48.888;15.544;2023-07-02T04:31:51;95413.38;;;17.08;59.84
72636;BME280;60679;48.888;15.544;2023-07-02T04:34:16;95421.47;;;17.23;59.74
72636;BME280;60679;48.888;15.544;2023-07-02T04:36:43;95427.06;;;17.37;59.45
72636;BME280;60679;48.888;15.544;2023-07-02T04:39:08;95425.03;;;17.48;59.40
72636;BME280;60679;48.888;15.544;2023-07-02T04:41:34;95416.84;;;17.48;59.53
72636;BME280;60679;48.888;15.544;2023-07-02T04:43:59;95435.16;;;17.47;59.76
72636;BME280;60679;48.888;15.544;2023-07-02T04:46:29;95435.69;;;17.49;59.82
72636;BME280;60679;48.888;15.544;2023-07-02T04:48:54;95429.94;;;17.51;59.93
72636;BME280;60679;48.888;15.544;2023-07-02T04:51:20;95435.91;;;17.58;59.91
72636;BME280;60679;48.888;15.544;2023-07-02T04:53:46;95433.69;;;17.60;59.93
72636;BME280;60679;48.888;15.544;2023-07-02T04:56:12;95431.72;;;17.65;59.83
72636;BME280;60679;48.888;15.544;2023-07-02T04:58:37;95441.06;;;17.59;60.27
72636;BME280;60679;48.888;15.544;2023-07-02T05:01:03;95437.81;;;17.57;60.13
72636;BME280;60679;48.888;15.544;2023-07-02T05:03:28;95444.09;;;17.58;60.21
72636;BME280;60679;48.888;15.544;2023-07-02T05:05:54;95444.69;;;17.55;60.24
72636;BME280;60679;48.888;15.544;2023-07-02T05:08:19;95441.50;;;17.71;59.87
72636;BME280;60679;48.888;15.544;2023-07-02T05:10:45;95444.09;;;18.10;59.28
72636;BME280;60679;48.888;15.544;2023-07-02T05:13:10;95446.59;;;18.54;58.69
72636;BME280;60679;48.888;15.544;2023-07-02T05:15:36;95445.34;;;18.65;58.58
72636;BME280;60679;48.888;15.544;2023-07-02T05:18:01;95442.59;;;18.65;59.14
72636;BME280;60679;48.888;15.544;2023-07-02T05:20:27;95453.56;;;18.84;58.29
72636;BME280;60679;48.888;15.544;2023-07-02T05:22:52;95457.75;;;18.95;58.74
72636;BME280;60679;48.888;15.544;2023-07-02T05:25:18;95451.34;;;19.05;58.58
72636;BME280;60679;48.888;15.544;2023-07-02T05:27:43;95447.03;;;19.17;58.21
72636;BME280;60679;48.888;15.544;2023-07-02T05:30:09;95451.16;;;19.15;58.17
72636;BME280;60679;48.888;15.544;2023-07-02T05:32:34;95454.06;;;19.05;58.77
72636;BME280;60679;48.888;15.544;2023-07-02T05:35:00;95457.34;;;18.88;59.01
72636;BME280;60679;48.888;15.544;2023-07-02T05:37:25;95462.94;;;18.78;59.17
72636;BME280;60679;48.888;15.544;2023-07-02T05:39:51;95457.69;;;19.00;58.71
72636;BME280;60679;48.888;15.544;2023-07-02T05:42:16;95469.50;;;19.14;58.56
72636;BME280;60679;48.888;15.544;2023-07-02T05:44:41;95473.56;;;19.35;58.19
72636;BME280;60679;48.888;15.544;2023-07-02T05:47:07;95471.56;;;19.59;57.69
72636;BME280;60679;48.888;15.544;2023-07-02T05:49:32;95477.53;;;19.62;57.88
72636;BME280;60679;48.888;15.544;2023-07-02T05:52:01;95476.66;;;19.47;58.68
72636;BME280;60679;48.888;15.544;2023-07-02T05:54:26;95494.09;;;19.19;59.04
72636;BME280;60679;48.888;15.544;2023-07-02T05:56:52;95494.91;;;19.01;58.99
72636;BME280;60679;48.888;15.544;2023-07-02T05:59:17;95500.53;;;18.91;59.13
72636;BME280;60679;48.888;15.544;2023-07-02T06:01:44;95506.59;;;19.07;58.90
72636;BME280;60679;48.888;15.544;2023-07-02T06:04:09;95507.53;;;18.97;58.71
72636;BME280;60679;48.888;15.544;2023-07-02T06:06:35;95518.22;;;18.75;59.11
72636;BME280;60679;48.888;15.544;2023-07-02T06:09:00;95503.22;;;18.72;59.44
72636;BME280;60679;48.888;15.544;2023-07-02T06:11:25;95513.31;;;18.95;58.85
72636;BME280;60679;48.888;15.544;2023-07-02T06:13:51;95521.81;;;19.13;58.67
72636;BME280;60679;48.888;15.544;2023-07-02T06:16:16;95521.16;;;19.39;58.30
72636;BME280;60679;48.888;15.544;2023-07-02T06:18:42;95514.41;;;19.69;57.52
72636;BME280;60679;48.888;15.544;2023-07-02T06:21:07;95499.03;;;19.87;57.68
72636;BME280;60679;48.888;15.544;2023-07-02T06:23:41;95502.09;;;19.99;57.73
72636;BME280;60679;48.888;15.544;2023-07-02T06:26:07;95511.09;;;19.86;58.02
72636;BME280;60679;48.888;15.544;2023-07-02T06:28:32;95506.19;;;19.69;58.57
72636;BME280;60679;48.888;15.544;2023-07-02T06:30:58;95502.97;;;19.30;59.34
72636;BME280;60679;48.888;15.544;2023-07-02T06:33:23;95507.63;;;19.11;59.67
72636;BME280;60679;48.888;15.544;2023-07-02T06:35:49;95504.50;;;19.17;59.83
72636;BME280;60679;48.888;15.544;2023-07-02T06:38:15;95501.41;;;19.24;59.97
72636;BME280;60679;48.888;15.544;2023-07-02T06:40:40;95500.97;;;19.35;59.57
72636;BME280;60679;48.888;15.544;2023-07-02T06:43:05;95500.44;;;19.52;59.38
72636;BME280;60679;48.888;15.544;2023-07-02T06:45:31;95501.22;;;19.71;59.09
72636;BME280;60679;48.888;15.544;2023-07-02T06:47:56;95494.19;;;19.97;59.29
72636;BME280;60679;48.888;15.544;2023-07-02T06:50:22;95497.66;;;20.16;58.95
72636;BME280;60679;48.888;15.544;2023-07-02T06:52:48;95495.69;;;20.63;57.99
72636;BME280;60679;48.888;15.544;2023-07-02T06:55:13;95486.16;;;21.46;56.29
72636;BME280;60679;48.888;15.544;2023-07-02T06:57:43;95493.59;;;22.12;55.50
72636;BME280;60679;48.888;15.544;2023-07-02T07:00:15;95491.00;;;22.46;55.09
72636;BME280;60679;48.888;15.544;2023-07-02T07:02:41;95485.22;;;22.56;54.76
72636;BME280;60679;48.888;15.544;2023-07-02T07:05:06;95491.38;;;22.62;54.44
72636;BME280;60679;48.888;15.544;2023-07-02T07:07:35;95493.47;;;23.04;53.95
72636;BME280;60679;48.888;15.544;2023-07-02T07:10:00;95492.38;;;23.22;53.69
72636;BME280;60679;48.888;15.544;2023-07-02T07:12:26;95486.84;;;23.14;53.89
72636;BME280;60679;48.888;15.544;2023-07-02T07:14:52;95484.72;;;23.02;54.08
72636;BME280;60679;48.888;15.544;2023-07-02T07:17:17;95493.78;;;22.94;54.03
72636;BME280;60679;48.888;15.544;2023-07-02T07:19:43;95483.56;;;22.47;54.76
72636;BME280;60679;48.888;15.544;2023-07-02T07:22:08;95489.16;;;22.02;55.50
72636;BME280;60679;48.888;15.544;2023-07-02T07:24:34;95495.47;;;21.80;55.75
72636;BME280;60679;48.888;15.544;2023-07-02T07:26:59;95497.31;;;21.27;56.27
72636;BME280;60679;48.888;15.544;2023-07-02T07:29:25;95491.66;;;21.46;55.75
72636;BME280;60679;48.888;15.544;2023-07-02T07:31:50;95494.31;;;21.73;55.38
72636;BME280;60679;48.888;15.544;2023-07-02T07:34:16;95483.13;;;21.47;55.74
72636;BME280;60679;48.888;15.544;2023-07-02T07:36:41;95498.13;;;21.27;56.22
72636;BME280;60679;48.888;15.544;2023-07-02T07:39:06;95499.03;;;21.81;55.59
72636;BME280;60679;48.888;15.544;2023-07-02T07:41:32;95486.84;;;22.57;54.35
72636;BME280;60679;48.888;15.544;2023-07-02T07:43:57;95495.47;;;23.81;51.94
72636;BME280;60679;48.888;15.544;2023-07-02T07:46:23;95490.78;;;24.45;51.39
72636;BME280;60679;48.888;15.544;2023-07-02T07:48:49;95499.47;;;24.09;51.79
72636;BME280;60679;48.888;15.544;2023-07-02T07:51:14;95483.41;;;24.02;51.82
72636;BME280;60679;48.888;15.544;2023-07-02T07:53:39;95483.41;;;24.20;51.36
72636;BME280;60679;48.888;15.544;2023-07-02T07:56:05;95477.47;;;23.83;51.92
72636;BME280;60679;48.888;15.544;2023-07-02T07:58:31;95487.84;;;23.69;52.17
72636;BME280;60679;48.888;15.544;2023-07-02T08:00:57;95490.63;;;23.61;51.85
72636;BME280;60679;48.888;15.544;2023-07-02T08:03:23;95482.19;;;23.57;51.86
72636;BME280;60679;48.888;15.544;2023-07-02T08:05:48;95499.53;;;23.58;51.84
72636;BME280;60679;48.888;15.544;2023-07-02T08:08:14;95500.34;;;23.58;52.03
72636;BME280;60679;48.888;15.544;2023-07-02T08:10:39;95494.19;;;23.70;51.82
72636;BME280;60679;48.888;15.544;2023-07-02T08:13:05;95502.25;;;24.00;51.24
72636;BME280;60679;48.888;15.544;2023-07-02T08:15:30;95499.38;;;24.52;50.42
72636;BME280;60679;48.888;15.544;2023-07-02T08:17:55;95498.16;;;25.08;49.28
72636;BME280;60679;48.888;15.544;2023-07-02T08:20:23;95493.41;;;24.79;49.57
72636;BME280;60679;48.888;15.544;2023-07-02T08:22:49;95503.16;;;24.39;49.84
72636;BME280;60679;48.888;15.544;2023-07-02T08:25:17;95491.19;;;24.26;49.85
72636;BME280;60679;48.888;15.544;2023-07-02T08:27:43;95505.53;;;24.57;48.80
72636;BME280;60679;48.888;15.544;2023-07-02T08:30:08;95505.75;;;24.44;49.37
72636;BME280;60679;48.888;15.544;2023-07-02T08:32:34;95506.16;;;24.17;49.61
72636;BME280;60679;48.888;15.544;2023-07-02T08:34:59;95509.44;;;23.76;49.98
72636;BME280;60679;48.888;15.544;2023-07-02T08:37:25;95519.00;;;23.44;50.43
72636;BME280;60679;48.888;15.544;2023-07-02T08:39:50;95508.41;;;23.37;50.24
72636;BME280;60679;48.888;15.544;2023-07-02T08:42:16;95523.22;;;23.50;49.55
72636;BME280;60679;48.888;15.544;2023-07-02T08:44:42;95532.31;;;23.59;49.36
72636;BME280;60679;48.888;15.544;2023-07-02T08:47:11;95517.19;;;23.82;49.08
72636;BME280;60679;48.888;15.544;2023-07-02T08:49:36;95527.91;;;24.18;48.56
72636;BME280;60679;48.888;15.544;2023-07-02T08:52:02;95519.00;;;24.59;47.57
72636;BME280;60679;48.888;15.544;2023-07-02T08:54:28;95519.50;;;25.28;46.86
72636;BME280;60679;48.888;15.544;2023-07-02T08:56:53;95513.03;;;25.45;46.49
72636;BME280;60679;48.888;15.544;2023-07-02T08:59:19;95505.03;;;26.26;45.64
72636;BME280;60679;48.888;15.544;2023-07-02T09:01:48;95499.25;;;26.76;44.95
72636;BME280;60679;48.888;15.544;2023-07-02T09:04:25;95506.19;;;26.25;45.17
72636;BME280;60679;48.888;15.544;2023-07-02T09:07:05;95510.56;;;25.72;45.99
72636;BME280;60679;48.888;15.544;2023-07-02T09:09:31;95513.25;;;26.91;44.46
72636;BME280;60679;48.888;15.544;2023-07-02T09:11:56;95516.38;;;27.26;43.80
72636;BME280;60679;48.888;15.544;2023-07-02T09:14:29;95512.16;;;28.08;43.17
72636;BME280;60679;48.888;15.544;2023-07-02T09:17:08;95518.00;;;28.47;42.35
72636;BME280;60679;48.888;15.544;2023-07-02T09:19:35;95508.06;;;28.61;41.86
72636;BME280;60679;48.888;15.544;2023-07-02T09:22:02;95521.34;;;27.97;42.79
72636;BME280;60679;48.888;15.544;2023-07-02T09:24:30;95527.91;;;26.35;44.65
72636;BME280;60679;48.888;15.544;2023-07-02T09:27:00;95523.97;;;25.41;45.73
72636;BME280;60679;48.888;15.544;2023-07-02T09:31:55;95532.53;;;24.90;45.63
72636;BME280;60679;48.888;15.544;2023-07-02T09:34:27;95514.28;;;25.26;44.95
72636;BME280;60679;48.888;15.544;2023-07-02T09:36:53;95523.25;;;26.15;43.46
72636;BME280;60679;48.888;15.544;2023-07-02T09:39:20;95521.94;;;26.33;42.74
72636;BME280;60679;48.888;15.544;2023-07-02T09:41:50;95526.09;;;26.51;42.68
72636;BME280;60679;48.888;15.544;2023-07-02T09:44:17;95534.28;;;26.35;42.54
72636;BME280;60679;48.888;15.544;2023-07-02T09:47:07;95524.59;;;26.42;42.14
72636;BME280;60679;48.888;15.544;2023-07-02T09:49:38;95526.78;;;26.48;42.18
72636;BME280;60679;48.888;15.544;2023-07-02T09:52:06;95530.63;;;26.56;41.74
72636;BME280;60679;48.888;15.544;2023-07-02T09:54:32;95532.13;;;26.65;41.43
72636;BME280;60679;48.888;15.544;2023-07-02T09:56:59;95529.50;;;26.69;41.62
72636;BME280;60679;48.888;15.544;2023-07-02T09:59:25;95526.69;;;26.45;41.62
72636;BME280;60679;48.888;15.544;2023-07-02T10:01:51;95530.41;;;26.16;42.08
72636;BME280;60679;48.888;15.544;2023-07-02T10:04:18;95540.31;;;25.96;42.04
72636;BME280;60679;48.888;15.544;2023-07-02T10:07:04;95544.16;;;27.78;39.46
72636;BME280;60679;48.888;15.544;2023-07-02T10:09:40;95530.59;;;35.53;29.21
72636;BME280;60679;48.888;15.544;2023-07-02T10:12:20;95544.00;;;39.23;26.18
72636;BME280;60679;48.888;15.544;2023-07-02T10:14:46;95542.97;;;38.12;27.71
72636;BME280;60679;48.888;15.544;2023-07-02T10:17:29;95542.31;;;34.30;32.51
72636;BME280;60679;48.888;15.544;2023-07-02T10:19:58;95546.69;;;32.45;34.32
72636;BME280;60679;48.888;15.544;2023-07-02T10:22:24;95538.75;;;34.37;31.46
72636;BME280;60679;48.888;15.544;2023-07-02T10:27:38;95537.75;;;34.01;31.61
72636;BME280;60679;48.888;15.544;2023-07-02T10:30:08;95543.41;;;32.06;33.74
72636;BME280;60679;48.888;15.544;2023-07-02T10:32:35;95546.41;;;30.77;34.98
72636;BME280;60679;48.888;15.544;2023-07-02T10:35:02;95545.94;;;29.13;37.13
72636;BME280;60679;48.888;15.544;2023-07-02T10:37:37;95562.88;;;28.33;37.53
72636;BME280;60679;48.888;15.544;2023-07-02T10:40:06;95561.09;;;28.01;38.04
72636;BME280;60679;48.888;15.544;2023-07-02T10:42:32;95554.25;;;27.59;38.53
72636;BME280;60679;48.888;15.544;2023-07-02T10:44:59;95560.63;;;27.11;38.97
72636;BME280;60679;48.888;15.544;2023-07-02T10:47:24;95563.78;;;26.76;39.29
72636;BME280;60679;48.888;15.544;2023-07-02T10:49:53;95566.22;;;26.78;39.16
72636;BME280;60679;48.888;15.544;2023-07-02T10:52:18;95565.63;;;25.86;40.33
72636;BME280;60679;48.888;15.544;2023-07-02T10:54:45;95571.25;;;25.19;40.97
72636;BME280;60679;48.888;15.544;2023-07-02T10:57:13;95571.72;;;24.92;41.46
72636;BME280;60679;48.888;15.544;2023-07-02T10:59:41;95565.91;;;24.67;41.48
72636;BME280;60679;48.888;15.544;2023-07-02T11:02:08;95572.56;;;24.84;41.21
72636;BME280;60679;48.888;15.544;2023-07-02T11:04:36;95559.22;;;25.53;40.07
72636;BME280;60679;48.888;15.544;2023-07-02T11:07:02;95567.94;;;25.84;39.86
72636;BME280;60679;48.888;15.544;2023-07-02T11:09:28;95568.59;;;25.60;40.28
72636;BME280;60679;48.888;15.544;2023-07-02T11:11:55;95572.44;;;25.68;40.12
72636;BME280;60679;48.888;15.544;2023-07-02T11:14:33;95564.84;;;26.39;39.22
72636;BME280;60679;48.888;15.544;2023-07-02T11:17:03;95560.88;;;30.82;33.16
72636;BME280;60679;48.888;15.544;2023-07-02T11:19:31;95566.59;;;31.84;32.43
72636;BME280;60679;48.888;15.544;2023-07-02T11:21:58;95581.38;;;29.16;36.09
72636;BME280;60679;48.888;15.544;2023-07-02T11:24:34;95582.00;;;27.46;38.05
72636;BME280;60679;48.888;15.544;2023-07-02T11:27:01;95584.75;;;26.86;38.64
72636;BME280;60679;48.888;15.544;2023-07-02T11:29:31;95587.22;;;25.93;40.00
72636;BME280;60679;48.888;15.544;2023-07-02T11:32:07;95590.38;;;25.03;41.17
72636;BME280;60679;48.888;15.544;2023-07-02T11:34:34;95592.56;;;24.81;40.94
72636;BME280;60679;48.888;15.544;2023-07-02T11:37:00;95590.25;;;31.64;31.55
72636;BME280;60679;48.888;15.544;2023-07-02T11:39:26;95583.22;;;33.77;30.13
72636;BME280;60679;48.888;15.544;2023-07-02T11:41:52;95590.59;;;38.07;25.97
72636;BME280;60679;48.888;15.544;2023-07-02T11:44:17;95579.78;;;31.57;33.04
72636;BME280;60679;48.888;15.544;2023-07-02T11:46:43;95581.84;;;31.90;32.19
72636;BME280;60679;48.888;15.544;2023-07-02T11:49:09;95585.28;;;31.31;32.64
72636;BME280;60679;48.888;15.544;2023-07-02T11:51:38;95581.94;;;36.28;26.99
72636;BME280;60679;48.888;15.544;2023-07-02T11:54:04;95581.03;;;41.83;22.60
72636;BME280;60679;48.888;15.544;2023-07-02T11:56:30;95590.84;;;44.52;20.93
72636;BME280;60679;48.888;15.544;2023-07-02T11:58:56;95583.34;;;44.45;20.65
72636;BME280;60679;48.888;15.544;2023-07-02T12:01:21;95588.03;;;45.17;20.36
72636;BME280;60679;48.888;15.544;2023-07-02T12:03:47;95581.34;;;45.11;20.95
72636;BME280;60679;48.888;15.544;2023-07-02T12:06:12;95569.41;;;38.63;26.99
72636;BME280;60679;48.888;15.544;2023-07-02T12:08:38;95572.16;;;36.75;28.17
72636;BME280;60679;48.888;15.544;2023-07-02T12:11:03;95566.41;;;34.42;30.26
72636;BME280;60679;48.888;15.544;2023-07-02T12:13:28;95585.00;;;29.48;35.60
72636;BME280;60679;48.888;15.544;2023-07-02T12:15:54;95583.09;;;28.06;36.81
72636;BME280;60679;48.888;15.544;2023-07-02T12:18:19;95579.38;;;27.50;37.31
72636;BME280;60679;48.888;15.544;2023-07-02T12:20:45;95581.38;;;30.13;33.40
72636;BME280;60679;48.888;15.544;2023-07-02T12:23:10;95564.94;;;40.26;22.97
72636;BME280;60679;48.888;15.544;2023-07-02T12:25:37;95561.16;;;40.75;23.30
72636;BME280;60679;48.888;15.544;2023-07-02T12:28:03;95556.50;;;34.62;30.51
72636;BME280;60679;48.888;15.544;2023-07-02T12:30:28;95568.78;;;31.00;34.10
72636;BME280;60679;48.888;15.544;2023-07-02T12:32:54;95560.47;;;32.97;30.34
72636;BME280;60679;48.888;15.544;2023-07-02T12:35:20;95555.25;;;37.40;26.25
72636;BME280;60679;48.888;15.544;2023-07-02T12:37:46;95560.38;;;31.94;32.46
72636;BME280;60679;48.888;15.544;2023-07-02T12:40:12;95546.25;;;35.75;27.36
72636;BME280;60679;48.888;15.544;2023-07-02T12:42:40;95552.59;;;42.31;21.41
72636;BME280;60679;48.888;15.544;2023-07-02T12:45:05;95558.81;;;44.13;20.11
72636;BME280;60679;48.888;15.544;2023-07-02T12:47:31;95555.75;;;44.42;19.50
72636;BME280;60679;48.888;15.544;2023-07-02T12:49:56;95561.78;;;44.57;19.44
72636;BME280;60679;48.888;15.544;2023-07-02T12:52:22;95556.94;;;45.31;19.03